Time;durP1;ratioP1;P1;durP2;ratioP2;P2;SDS_P1;SDS_P2;PMS_P1;PMS_P2;Temp;Humidity;BMP_temperature;BMP_pressure;BME280_temperature;BME280_humidity;BME280_pressure;Samples;Min_cycle;Max_cycle;Signal;HPM_P1;HPM_P2
2023/03/16 00:00:18;;;;;;;8.02;4.88;;;;;;;4.02;85.40;101743.03;4853498;29;20026;-84
2023/03/16 00:02:44;;;;;;;6.90;4.05;;;;;;;4.07;84.75;101742.91;4842873;29;20057;-84
2023/03/16 00:05:11;;;;;;;8.43;4.32;;;;;;;3.90;85.49;101739.97;4855360;29;20098;-85
2023/03/16 00:07:37;;;;;;;5.80;4.13;;;;;;;3.93;85.79;101733.81;4874899;29;20116;-84
2023/03/16 00:10:02;;;;;;;8.95;4.78;;;;;;;3.73;86.12;101735.09;4876429;29;20117;-81
2023/03/16 00:12:28;;;;;;;13.93;4.72;;;;;;;3.91;86.31;101738.84;4876993;29;20093;-84
2023/03/16 00:14:54;;;;;;;10.50;4.68;;;;;;;4.02;87.67;101743.03;4877729;29;20084;-85
2023/03/16 00:17:20;;;;;;;12.98;4.60;;;;;;;3.85;86.56;101746.44;4875088;29;20116;-84
2023/03/16 00:19:48;;;;;;;8.90;5.00;;;;;;;3.86;86.19;101746.16;4874726;29;20084;-85
2023/03/16 00:22:15;;;;;;;9.27;4.43;;;;;;;3.90;88.14;101737.19;4861932;29;20490;-85
2023/03/16 00:24:44;;;;;;;7.28;4.20;;;;;;;3.77;86.32;101741.63;4873964;29;20032;-84
2023/03/16 00:27:14;;;;;;;10.95;4.95;;;;;;;3.84;86.55;101745.63;4857623;29;20071;-84
2023/03/16 00:29:47;;;;;;;9.52;4.28;;;;;;;3.87;88.46;101744.19;4870304;29;20045;-85
2023/03/16 00:32:18;;;;;;;9.80;5.28;;;;;;;3.98;87.14;101737.28;4855987;29;20088;-84
2023/03/16 00:34:45;;;;;;;7.78;4.50;;;;;;;3.98;87.54;101742.00;4856139;29;20029;-84
2023/03/16 00:37:14;;;;;;;9.77;4.60;;;;;;;4.05;87.37;101734.91;4873070;29;20040;-84
2023/03/16 00:39:41;;;;;;;8.88;5.05;;;;;;;3.82;86.78;101734.03;4872493;29;20081;-84
2023/03/16 00:42:08;;;;;;;13.90;4.65;;;;;;;3.79;87.93;101722.75;4874816;29;20508;-84
2023/03/16 00:44:34;;;;;;;7.93;4.28;;;;;;;3.92;88.39;101715.56;4874878;29;20039;-84
2023/03/16 00:47:00;;;;;;;8.85;4.47;;;;;;;3.82;89.88;101709.13;4877324;29;20120;-85
2023/03/16 00:49:26;;;;;;;6.95;4.10;;;;;;;3.76;89.33;101702.06;4873882;29;20115;-84
2023/03/16 00:51:51;;;;;;;11.73;5.70;;;;;;;3.66;89.67;101703.09;4854125;29;20034;-84
2023/03/16 00:54:16;;;;;;;7.20;4.68;;;;;;;3.64;89.16;101704.53;4872437;29;20033;-84
2023/03/16 00:56:42;;;;;;;7.38;4.82;;;;;;;3.65;89.29;101690.41;4861049;29;20025;-85
2023/03/16 00:59:07;;;;;;;6.93;4.82;;;;;;;3.70;91.29;101688.66;4859437;29;20098;-84
2023/03/16 01:01:33;;;;;;;8.48;4.90;;;;;;;3.71;89.77;101687.50;4871947;29;20039;-84
2023/03/16 01:03:59;;;;;;;10.40;5.97;;;;;;;3.79;90.26;101679.25;4864828;29;20132;-84
2023/03/16 01:06:25;;;;;;;9.52;4.28;;;;;;;3.78;90.81;101676.84;4864061;29;20021;-84
2023/03/16 01:08:51;;;;;;;6.72;4.20;;;;;;;3.77;91.29;101673.22;4866591;29;20072;-84
2023/03/16 01:11:19;;;;;;;13.48;4.72;;;;;;;3.93;91.08;101678.44;4878231;29;20085;-84
2023/03/16 01:13:46;;;;;;;10.48;5.03;;;;;;;3.78;91.86;101674.88;4869194;29;20475;-85
2023/03/16 01:16:11;;;;;;;9.95;4.65;;;;;;;3.86;91.64;101674.13;4861440;29;20037;-84
2023/03/16 01:18:37;;;;;;;7.45;4.43;;;;;;;3.84;89.09;101665.31;4879665;29;20052;-84
2023/03/16 01:21:05;;;;;;;9.63;4.55;;;;;;;3.83;90.51;101666.44;4858654;29;20502;-84
2023/03/16 01:23:31;;;;;;;13.32;5.28;;;;;;;3.71;90.09;101657.88;4876413;29;20041;-84
2023/03/16 01:25:57;;;;;;;8.50;4.72;;;;;;;3.64;90.59;101657.47;4854172;29;20601;-84
2023/03/16 01:28:25;;;;;;;7.70;5.25;;;;;;;3.68;91.31;101644.66;4876662;29;20044;-84
2023/03/16 01:30:53;;;;;;;9.07;5.20;;;;;;;3.76;90.28;101652.22;4858030;29;20513;-84
2023/03/16 01:33:20;;;;;;;5.65;4.15;;;;;;;3.77;91.02;101648.28;4874528;29;20438;-84
2023/03/16 01:36:13;;;;;;;6.22;4.60;;;;;;;3.85;91.48;101638.44;4857031;29;20060;-84
2023/03/16 01:38:39;;;;;;;;;;;;;;;3.83;92.43;101629.63;4867334;29;20077;-84
2023/03/16 01:41:06;;;;;;;8.00;4.22;;;;;;;3.66;91.07;101630.28;4871136;29;19924;-85
2023/03/16 01:43:33;;;;;;;9.13;5.20;;;;;;;3.78;92.21;101627.00;4862883;29;20047;-85
2023/03/16 01:45:59;;;;;;;10.18;5.65;;;;;;;3.70;91.56;101631.31;4853067;29;20037;-84
2023/03/16 01:48:25;;;;;;;10.95;5.07;;;;;;;3.77;92.05;101614.25;4856505;29;20081;-85
2023/03/16 01:50:51;;;;;;;8.40;5.88;;;;;;;3.70;92.12;101617.47;4849465;29;20033;-84
2023/03/16 01:53:18;;;;;;;10.85;5.15;;;;;;;3.67;92.55;101615.34;4868346;29;20033;-84
2023/03/16 01:55:45;;;;;;;12.38;5.30;;;;;;;3.69;92.36;101613.06;4854886;29;20537;-84
2023/03/16 01:58:13;;;;;;;9.52;5.13;;;;;;;3.83;92.60;101613.81;4875827;29;20121;-83
2023/03/16 02:00:40;;;;;;;8.30;5.53;;;;;;;3.80;92.77;101614.47;4857844;29;20052;-84
2023/03/16 02:03:14;;;;;;;11.75;5.47;;;;;;;3.85;92.27;101617.09;4857695;29;20542;-84
2023/03/16 02:05:44;;;;;;;10.15;5.03;;;;;;;3.77;91.92;101615.06;4881806;29;20512;-84
2023/03/16 02:08:11;;;;;;;8.73;5.50;;;;;;;3.74;93.59;101609.34;4860119;29;20133;-84
2023/03/16 02:10:38;;;;;;;13.40;5.53;;;;;;;3.72;93.46;101611.63;4874191;29;20182;-84
2023/03/16 02:13:04;;;;;;;15.18;5.18;;;;;;;3.84;93.68;101609.94;4873839;29;20037;-83
2023/03/16 02:15:30;;;;;;;7.32;5.63;;;;;;;3.93;92.64;101604.44;4873200;29;20033;-84
2023/03/16 02:17:58;;;;;;;10.57;5.60;;;;;;;3.91;92.46;101603.13;4872168;29;20021;-84
2023/03/16 02:20:30;;;;;;;12.13;6.50;;;;;;;3.84;92.70;101606.34;4863927;29;20045;-84
2023/03/16 02:22:55;;;;;;;12.90;5.50;;;;;;;3.80;92.65;101597.84;4863825;29;20410;-84
2023/03/16 02:25:25;;;;;;;7.30;4.50;;;;;;;3.95;93.21;101604.16;4851694;29;20032;-84
2023/03/16 02:28:12;;;;;;;7.85;5.05;;;;;;;3.87;93.19;101592.66;4866258;29;20036;-84
2023/03/16 02:30:37;;;;;;;6.90;4.32;;;;;;;3.68;93.36;101572.66;4853235;29;20039;-84
2023/03/16 02:33:06;;;;;;;10.00;5.72;;;;;;;3.78;94.38;101580.72;4870108;29;20033;-84
2023/03/16 02:35:32;;;;;;;9.73;5.90;;;;;;;3.81;93.33;101571.78;4872259;29;20660;-84
2023/03/16 02:37:57;;;;;;;9.10;6.03;;;;;;;3.84;93.11;101573.94;4866531;29;20112;-84
2023/03/16 02:40:31;;;;;;;8.80;5.88;;;;;;;3.95;92.40;101565.38;4851777;29;20039;-84
2023/03/16 02:43:01;;;;;;;10.95;5.57;;;;;;;3.94;92.62;101570.06;4865539;29;20737;-84
2023/03/16 02:45:32;;;;;;;10.48;6.25;;;;;;;3.95;92.33;101571.72;4864337;29;20115;-84
2023/03/16 02:48:02;;;;;;;8.13;5.47;;;;;;;3.92;93.04;101571.53;4855148;29;20481;-84
2023/03/16 02:50:28;;;;;;;7.53;5.25;;;;;;;3.86;93.56;101568.09;4860965;29;20024;-84
2023/03/16 02:52:53;;;;;;;12.52;5.95;;;;;;;3.89;93.51;101561.91;4871479;29;20058;-84
2023/03/16 02:55:20;;;;;;;8.55;5.38;;;;;;;3.99;94.23;101567.19;4872532;29;20025;-84
2023/03/16 02:57:46;;;;;;;13.02;6.45;;;;;;;3.87;93.21;101564.16;4853326;29;20393;-84
2023/03/16 03:00:16;;;;;;;11.05;5.95;;;;;;;4.01;93.67;101564.09;4869241;29;20030;-84
2023/03/16 03:02:42;;;;;;;8.00;5.30;;;;;;;4.04;93.60;101569.00;4869356;29;20041;-84
2023/03/16 03:05:07;;;;;;;12.45;6.55;;;;;;;3.93;93.24;101562.09;4852449;29;20088;-84
2023/03/16 03:07:33;;;;;;;8.48;5.18;;;;;;;3.89;94.56;101561.09;4836691;29;20033;-84
2023/03/16 03:10:01;;;;;;;8.75;5.47;;;;;;;3.93;94.81;101557.38;4850075;29;20530;-84
2023/03/16 03:12:27;;;;;;;9.98;5.78;;;;;;;3.98;94.31;101553.63;4840948;29;20112;-84
2023/03/16 03:14:52;;;;;;;11.45;6.13;;;;;;;3.94;94.31;101558.16;4838778;29;21310;-84
2023/03/16 03:17:17;;;;;;;12.43;6.45;;;;;;;3.97;94.84;101546.47;4834543;29;20025;-84
2023/03/16 03:19:43;;;;;;;9.48;6.32;;;;;;;3.96;94.65;101544.81;4850090;29;20025;-84
2023/03/16 03:22:08;;;;;;;10.57;6.40;;;;;;;3.95;94.30;101543.22;4854100;29;20598;-84
2023/03/16 03:24:34;;;;;;;13.15;5.90;;;;;;;3.84;94.70;101532.38;4833701;29;20029;-84
2023/03/16 03:27:00;;;;;;;12.95;5.53;;;;;;;3.96;95.51;101533.75;4834167;29;20490;-84
2023/03/16 03:29:33;;;;;;;12.32;5.60;;;;;;;3.93;95.37;101528.84;4857373;29;20444;-84
2023/03/16 03:32:05;;;;;;;10.43;5.78;;;;;;;3.88;95.36;101532.59;4858106;29;20042;-84
2023/03/16 03:34:30;;;;;;;11.50;5.65;;;;;;;3.88;95.53;101524.28;4855228;29;20039;-84
2023/03/16 03:36:57;;;;;;;10.27;6.68;;;;;;;3.93;96.01;101531.63;4855121;29;20034;-84
2023/03/16 03:39:23;;;;;;;11.02;5.82;;;;;;;3.90;96.43;101518.41;4857983;29;20614;-84
2023/03/16 03:41:49;;;;;;;10.57;6.32;;;;;;;4.02;95.28;101510.31;4839831;29;20483;-84
2023/03/16 03:44:14;;;;;;;10.93;6.55;;;;;;;4.01;95.91;101509.50;4841038;29;20061;-84
2023/03/16 03:46:40;;;;;;;8.63;6.25;;;;;;;3.98;94.67;101504.59;4838331;29;20072;-84
2023/03/16 03:49:05;;;;;;;9.75;6.22;;;;;;;4.01;95.75;101500.38;4839030;29;20034;-84
2023/03/16 03:51:32;;;;;;;12.32;6.80;;;;;;;3.97;95.84;101507.69;4827689;29;20102;-83
2023/03/16 03:53:57;;;;;;;12.98;6.85;;;;;;;4.01;95.69;101503.16;4832191;29;20037;-84
2023/03/16 03:56:23;;;;;;;14.93;6.63;;;;;;;3.98;95.87;101498.25;4833000;29;20120;-85
2023/03/16 03:58:49;;;;;;;13.45;6.35;;;;;;;3.95;96.90;101494.16;4852156;29;20037;-83
2023/03/16 04:01:14;;;;;;;10.10;5.57;;;;;;;3.94;96.36;101502.78;4855450;29;20037;-84
2023/03/16 04:03:39;;;;;;;9.35;6.47;;;;;;;3.97;96.03;101502.16;4839656;29;20041;-84
2023/03/16 04:06:06;;;;;;;10.95;6.20;;;;;;;4.03;95.94;101504.47;4855972;29;20042;-84
2023/03/16 04:08:33;;;;;;;9.00;5.47;;;;;;;4.00;96.14;101518.94;4855892;29;20089;-84
2023/03/16 04:10:58;;;;;;;12.15;6.30;;;;;;;3.95;96.71;101521.84;4851242;29;20191;-84
2023/03/16 04:13:24;;;;;;;12.15;7.97;;;;;;;3.95;97.08;101502.47;4855190;29;20569;-84
2023/03/16 04:15:56;;;;;;;14.77;7.47;;;;;;;3.99;97.85;101495.16;4856745;29;20471;-84
2023/03/16 04:18:22;;;;;;;;;;;;;;;4.07;96.73;101507.44;4841962;29;20041;-84
2023/03/16 04:20:47;;;;;;;16.48;6.45;;;;;;;3.93;96.57;101496.44;4854599;29;19916;-84
2023/03/16 04:23:13;;;;;;;13.73;6.60;;;;;;;3.88;97.30;101504.88;4841615;29;20045;-83
2023/03/16 04:25:38;;;;;;;15.55;7.55;;;;;;;3.87;97.00;101498.50;4838825;29;20014;-84
2023/03/16 04:28:04;;;;;;;9.20;6.30;;;;;;;3.98;97.20;101503.78;4838305;29;20571;-84
2023/03/16 04:30:29;;;;;;;9.57;6.65;;;;;;;4.06;97.07;101489.97;4850311;29;20065;-84
2023/03/16 04:32:55;;;;;;;10.73;5.60;;;;;;;3.97;97.41;101485.53;4850083;29;20029;-84
2023/03/16 04:35:21;;;;;;;9.25;5.93;;;;;;;3.97;97.38;101494.66;4832445;29;21654;-84
2023/03/16 04:37:46;;;;;;;11.80;6.47;;;;;;;4.04;97.25;101485.88;4836203;29;20025;-84
2023/03/16 04:40:15;;;;;;;12.50;7.05;;;;;;;4.09;96.83;101485.75;4850594;29;20030;-84
2023/03/16 04:42:40;;;;;;;12.35;5.97;;;;;;;4.15;97.46;101475.34;4852384;29;20037;-84
2023/03/16 04:45:07;;;;;;;11.05;6.30;;;;;;;4.11;97.17;101486.25;4835621;29;20225;-84
2023/03/16 04:47:33;;;;;;;11.55;6.20;;;;;;;4.07;96.84;101474.19;4854876;29;20441;-84
2023/03/16 04:50:02;;;;;;;13.30;6.70;;;;;;;4.05;97.33;101477.25;4848964;29;20398;-84
2023/03/16 04:52:28;;;;;;;12.85;6.75;;;;;;;4.12;96.88;101479.56;4835320;29;20034;-84
2023/03/16 04:54:54;;;;;;;12.45;6.57;;;;;;;4.06;97.79;101478.06;4835269;29;20036;-84
2023/03/16 04:57:19;;;;;;;9.80;5.82;;;;;;;3.99;97.45;101474.97;4850779;29;20166;-83
2023/03/16 04:59:44;;;;;;;14.15;7.32;;;;;;;4.02;97.97;101466.81;4837270;29;20347;-84
2023/03/16 05:02:10;;;;;;;12.90;6.93;;;;;;;3.97;98.92;101466.16;4837403;29;20057;-84
2023/03/16 05:04:35;;;;;;;12.68;6.47;;;;;;;4.03;98.37;101473.19;4859700;29;20060;-84
2023/03/16 05:07:01;;;;;;;11.07;5.75;;;;;;;4.06;97.78;101465.03;4853153;29;20036;-84
2023/03/16 05:09:26;;;;;;;10.85;6.78;;;;;;;4.01;98.75;101472.69;4853498;29;20029;-84
2023/03/16 05:11:52;;;;;;;10.57;5.72;;;;;;;4.02;97.83;101461.28;4857650;29;20033;-84
2023/03/16 05:14:17;;;;;;;11.07;6.78;;;;;;;4.00;98.81;101462.72;4862102;29;20045;-84
2023/03/16 05:16:42;;;;;;;12.23;6.28;;;;;;;4.00;99.84;101463.53;4851452;29;20060;-84
2023/03/16 05:19:08;;;;;;;12.48;5.28;;;;;;;4.10;98.51;101456.91;4858037;29;20033;-84
2023/03/16 05:21:36;;;;;;;9.32;6.38;;;;;;;4.09;98.96;101460.84;4874660;29;20474;-84
2023/03/16 05:24:02;;;;;;;12.32;5.63;;;;;;;4.08;98.60;101459.19;4870040;29;20060;-83
2023/03/16 05:26:28;;;;;;;9.30;6.15;;;;;;;4.02;99.33;101450.19;4872978;29;20060;-84
2023/03/16 05:28:53;;;;;;;9.65;5.85;;;;;;;4.06;98.92;101451.19;4857896;29;20056;-84
2023/03/16 05:31:19;;;;;;;10.40;6.25;;;;;;;3.96;99.60;101454.22;4875036;29;20033;-84
2023/03/16 05:33:44;;;;;;;11.68;5.80;;;;;;;3.98;99.61;101448.38;4866628;29;20534;-84
2023/03/16 05:36:11;;;;;;;8.55;6.05;;;;;;;4.04;99.48;101458.19;4876255;29;20049;-84
2023/03/16 05:38:38;;;;;;;13.02;5.93;;;;;;;4.13;99.59;101464.56;4873364;29;20029;-84
2023/03/16 05:41:04;;;;;;;11.23;6.45;;;;;;;4.10;99.54;101470.75;4859119;29;20546;-84
2023/03/16 05:43:30;;;;;;;11.35;6.47;;;;;;;4.09;99.30;101477.44;4869125;29;20033;-84
2023/03/16 05:45:56;;;;;;;8.77;5.97;;;;;;;4.03;99.67;101468.47;4853276;29;20057;-84
2023/03/16 05:48:24;;;;;;;11.88;6.60;;;;;;;4.06;100.00;101469.75;4854825;29;20033;-84
2023/03/16 05:50:50;;;;;;;11.27;6.53;;;;;;;4.00;100.00;101471.03;4854934;29;20474;-84
2023/03/16 05:53:16;;;;;;;11.85;7.43;;;;;;;4.10;100.00;101461.66;4854335;29;20026;-84
2023/03/16 05:55:41;;;;;;;14.43;6.93;;;;;;;4.02;100.00;101457.69;4855403;29;20048;-84
2023/03/16 05:58:06;;;;;;;19.45;8.00;;;;;;;4.13;100.00;101447.94;4873792;29;20047;-84
2023/03/16 06:00:32;;;;;;;12.77;7.07;;;;;;;4.04;100.00;101431.28;4855628;29;20059;-83
2023/03/16 06:02:57;;;;;;;10.65;6.47;;;;;;;4.03;100.00;101432.44;4873318;29;20036;-84
2023/03/16 06:05:23;;;;;;;12.70;6.47;;;;;;;4.02;100.00;101439.09;4869123;29;20045;-83
2023/03/16 06:07:50;;;;;;;11.63;6.53;;;;;;;4.12;100.00;101440.78;4878029;29;20042;-84
2023/03/16 06:10:16;;;;;;;12.88;6.70;;;;;;;4.13;100.00;101431.31;4873489;29;20447;-84
2023/03/16 06:12:41;;;;;;;10.77;6.40;;;;;;;4.15;100.00;101442.09;4877189;29;20034;-83
2023/03/16 06:15:09;;;;;;;12.48;6.28;;;;;;;4.05;100.00;101441.25;4856612;29;20040;-84
2023/03/16 06:17:35;;;;;;;10.25;6.43;;;;;;;4.11;100.00;101443.88;4861439;29;20033;-84
2023/03/16 06:20:01;;;;;;;9.13;6.88;;;;;;;4.12;100.00;101438.00;4848859;29;20117;-83
2023/03/16 06:22:26;;;;;;;15.48;6.75;;;;;;;4.23;100.00;101435.75;4856164;29;20474;-84
2023/03/16 06:24:52;;;;;;;10.07;6.50;;;;;;;4.12;99.75;101431.66;4854267;29;20056;-84
2023/03/16 06:27:24;;;;;;;11.20;6.97;;;;;;;4.15;99.92;101436.56;4873212;29;20037;-84
2023/03/16 06:29:49;;;;;;;10.93;7.20;;;;;;;4.27;99.00;101443.09;4859160;29;20112;-84
2023/03/16 06:32:15;;;;;;;10.75;6.70;;;;;;;4.18;99.29;101433.16;4875572;29;20363;-85
2023/03/16 06:34:40;;;;;;;10.50;6.57;;;;;;;4.23;99.28;101433.00;4858050;29;20130;-84
2023/03/16 06:37:06;;;;;;;11.40;6.13;;;;;;;4.18;100.00;101435.94;4858795;29;20029;-84
2023/03/16 06:39:31;;;;;;;10.73;6.18;;;;;;;4.15;99.59;101431.81;4855836;29;20409;-84
2023/03/16 06:41:57;;;;;;;12.02;6.15;;;;;;;4.22;99.86;101434.97;4875220;29;20052;-84
2023/03/16 06:44:22;;;;;;;13.45;5.78;;;;;;;4.32;99.88;101433.00;4870790;29;20048;-84
2023/03/16 06:46:47;;;;;;;10.38;6.40;;;;;;;4.32;99.02;101424.69;4858918;29;20032;-84
2023/03/16 06:49:13;;;;;;;9.38;5.57;;;;;;;4.33;98.90;101431.91;4858433;29;20029;-83
2023/03/16 06:51:38;;;;;;;13.07;7.47;;;;;;;4.33;99.02;101429.13;4856358;29;20120;-84
2023/03/16 06:54:03;;;;;;;11.40;6.47;;;;;;;4.31;98.94;101431.41;4871602;29;20077;-84
2023/03/16 06:56:30;;;;;;;10.02;6.45;;;;;;;4.36;98.58;101428.47;4877551;29;20533;-84
2023/03/16 06:58:56;;;;;;;10.90;5.78;;;;;;;4.38;98.49;101428.97;4862469;29;20074;-84
2023/03/16 07:01:22;;;;;;;13.20;5.53;;;;;;;4.42;98.91;101427.97;4870834;29;20405;-84
2023/03/16 07:03:48;;;;;;;10.93;5.60;;;;;;;4.78;99.88;101431.63;4860885;29;20048;-83
2023/03/16 07:06:13;;;;;;;10.20;5.90;;;;;;;4.51;99.10;101433.53;4884376;29;20501;-84
2023/03/16 07:08:39;;;;;;;12.90;6.78;;;;;;;4.53;100.00;101436.00;4886306;29;20040;-85
2023/03/16 07:11:04;;;;;;;18.50;6.03;;;;;;;4.95;97.65;101420.53;4872273;29;20497;-88
2023/03/16 07:13:29;;;;;;;9.02;5.40;;;;;;;4.47;100.00;101430.63;4871020;29;20036;-86
2023/03/16 07:15:55;;;;;;;13.00;6.18;;;;;;;4.42;100.00;101421.63;4871384;29;20514;-85
2023/03/16 07:18:20;;;;;;;11.35;5.88;;;;;;;4.59;100.00;101424.44;4878131;29;20029;-88
2023/03/16 07:20:46;;;;;;;9.57;5.47;;;;;;;4.57;100.00;101426.72;4873167;29;20478;-86
2023/03/16 07:23:12;;;;;;;13.35;5.75;;;;;;;4.55;100.00;101422.63;4871888;29;20041;-86
2023/03/16 07:25:37;;;;;;;9.85;6.35;;;;;;;4.55;100.00;101428.19;4872841;29;20045;-86
2023/03/16 07:28:03;;;;;;;11.10;6.28;;;;;;;4.53;100.00;101431.25;4872697;29;20213;-86
2023/03/16 07:30:29;;;;;;;9.48;5.05;;;;;;;4.58;100.00;101439.44;4872573;29;20560;-86
2023/03/16 07:32:55;;;;;;;11.30;5.82;;;;;;;4.56;100.00;101436.19;4895255;29;20029;-85
2023/03/16 07:35:20;;;;;;;10.32;5.93;;;;;;;4.63;100.00;101435.69;4876882;29;20065;-85
2023/03/16 07:37:46;;;;;;;9.80;5.25;;;;;;;4.62;100.00;101436.84;4878947;29;20028;-85
2023/03/16 07:40:13;;;;;;;11.43;5.90;;;;;;;4.59;100.00;101435.53;4878362;29;20048;-86
2023/03/16 07:42:38;;;;;;;10.60;6.28;;;;;;;4.58;100.00;101435.88;4876192;29;20414;-85
2023/03/16 07:45:05;;;;;;;10.27;5.90;;;;;;;4.60;100.00;101434.41;4874392;29;20025;-85
2023/03/16 07:47:32;;;;;;;11.43;5.75;;;;;;;4.58;100.00;101431.13;4872736;29;20029;-86
2023/03/16 07:49:58;;;;;;;8.93;6.18;;;;;;;4.53;100.00;101428.50;4861456;29;20059;-86
2023/03/16 07:52:23;;;;;;;11.18;5.97;;;;;;;4.56;100.00;101419.53;4877341;29;20470;-87
2023/03/16 07:54:49;;;;;;;12.40;6.53;;;;;;;4.61;100.00;101427.69;4861396;29;20093;-86
2023/03/16 07:57:14;;;;;;;18.95;7.40;;;;;;;4.59;100.00;101434.72;4894135;29;20562;-88
2023/03/16 07:59:40;;;;;;;11.55;5.68;;;;;;;4.52;100.00;101432.41;4874302;29;20541;-87
2023/03/16 08:02:10;;;;;;;11.82;7.18;;;;;;;4.63;100.00;101432.94;4887571;29;20037;-88
2023/03/16 08:04:36;;;;;;;9.07;5.50;;;;;;;4.56;100.00;101430.63;4867268;29;20049;-88
2023/03/16 08:07:01;;;;;;;8.93;5.80;;;;;;;4.58;100.00;101431.13;4886320;29;20100;-88
2023/03/16 08:09:27;;;;;;;12.77;5.88;;;;;;;4.65;100.00;101427.88;4876595;29;20029;-88
2023/03/16 08:11:52;;;;;;;10.07;5.85;;;;;;;4.66;100.00;101427.56;4887598;29;20033;-87
2023/03/16 08:14:18;;;;;;;9.30;6.00;;;;;;;4.71;100.00;101425.78;4876972;29;20442;-87
2023/03/16 08:16:43;;;;;;;9.50;6.07;;;;;;;4.71;100.00;101425.78;4874831;29;20564;-88
2023/03/16 08:19:10;;;;;;;13.05;7.68;;;;;;;4.66;100.00;101427.56;4875862;29;20075;-88
2023/03/16 08:21:35;;;;;;;11.30;6.03;;;;;;;4.69;100.00;101417.75;4871407;29;20115;-88
2023/03/16 08:24:01;;;;;;;10.20;6.25;;;;;;;4.76;100.00;101422.81;4890165;29;20387;-87
2023/03/16 08:26:29;;;;;;;10.25;5.10;;;;;;;4.75;100.00;101419.25;4872529;29;20120;-88
2023/03/16 08:28:55;;;;;;;10.30;5.90;;;;;;;4.73;100.00;101421.53;4870721;29;20033;-87
2023/03/16 08:31:21;;;;;;;7.90;5.63;;;;;;;4.75;100.00;101421.22;4879375;29;20048;-88
2023/03/16 08:33:47;;;;;;;10.82;5.55;;;;;;;4.78;100.00;101420.53;4883453;29;20021;-88
2023/03/16 08:36:15;;;;;;;14.98;6.32;;;;;;;4.69;100.00;101417.75;4879460;29;20438;-88
2023/03/16 08:38:41;;;;;;;11.10;5.47;;;;;;;4.84;100.00;101424.78;4886734;29;20037;-88
2023/03/16 08:41:07;;;;;;;8.38;5.15;;;;;;;4.84;100.00;101424.78;4880871;29;20474;-92
2023/03/16 08:43:33;;;;;;;10.80;5.30;;;;;;;4.82;100.00;101408.47;4884765;29;20069;-93
2023/03/16 08:45:58;;;;;;;9.90;5.43;;;;;;;4.90;100.00;101415.16;4881699;29;20059;-93
2023/03/16 08:48:24;;;;;;;10.55;6.28;;;;;;;4.92;100.00;101417.63;4880809;29;20044;-91
2023/03/16 08:50:50;;;;;;;10.52;5.97;;;;;;;4.91;100.00;101413.19;4879993;29;20407;-94
2023/03/16 08:53:17;;;;;;;12.90;5.85;;;;;;;4.96;100.00;101416.63;4881586;29;20033;-92
2023/03/16 08:55:44;;;;;;;9.00;5.47;;;;;;;4.88;100.00;101411.91;4898155;29;20029;-93
2023/03/16 08:58:10;;;;;;;8.60;5.97;;;;;;;4.88;100.00;101432.13;4885177;29;20024;-93
2023/03/16 09:00:37;;;;;;;9.98;5.78;;;;;;;4.92;100.00;101420.41;4879079;29;20454;-90
2023/03/16 09:03:03;;;;;;;10.30;5.88;;;;;;;4.90;100.00;101406.84;4882643;29;20032;-90
2023/03/16 09:05:29;;;;;;;14.93;6.85;;;;;;;4.91;100.00;101414.00;4863025;29;20486;-93
2023/03/16 09:07:55;;;;;;;8.02;6.05;;;;;;;4.95;100.00;101422.50;4850788;29;20029;-92
2023/03/16 09:10:21;;;;;;;9.65;5.43;;;;;;;4.97;100.00;101412.72;4860910;29;20033;-91
2023/03/16 09:12:49;;;;;;;13.60;6.57;;;;;;;4.99;100.00;101404.88;4865414;29;20041;-91
2023/03/16 09:15:15;;;;;;;13.32;5.82;;;;;;;5.01;100.00;101405.38;4850081;29;20034;-92
2023/03/16 09:17:41;;;;;;;10.55;6.07;;;;;;;5.01;100.00;101397.03;4850396;29;20044;-90
2023/03/16 09:20:09;;;;;;;10.02;6.03;;;;;;;5.07;100.00;101395.72;4847160;29;20041;-90
2023/03/16 09:22:36;;;;;;;10.40;5.20;;;;;;;5.09;100.00;101390.66;4846915;29;20128;-92
2023/03/16 09:25:11;;;;;;;13.13;6.10;;;;;;;5.18;100.00;101396.22;4847257;29;20705;-90
2023/03/16 09:27:37;;;;;;;9.80;5.88;;;;;;;5.23;100.00;101398.81;4845002;29;20021;-92
2023/03/16 09:30:04;;;;;;;12.30;6.60;;;;;;;5.23;100.00;101392.47;4861794;29;20037;-89
2023/03/16 09:32:30;;;;;;;11.18;6.68;;;;;;;5.25;100.00;101391.00;4856894;29;20025;-91
2023/03/16 09:34:55;;;;;;;10.65;5.35;;;;;;;5.29;100.00;101391.97;4844346;29;20105;-91
2023/03/16 09:37:21;;;;;;;10.75;5.70;;;;;;;5.33;100.00;101389.31;4859150;29;20040;-90
2023/03/16 09:39:48;;;;;;;7.53;5.05;;;;;;;5.29;100.00;101374.47;4867250;29;20034;-90
2023/03/16 09:42:28;;;;;;;9.90;5.15;;;;;;;5.37;100.00;101387.53;4861635;29;20550;-90
2023/03/16 09:45:00;;;;;;;10.32;6.03;;;;;;;5.52;100.00;101377.03;4846731;29;20033;-91
2023/03/16 09:47:29;;;;;;;10.32;4.95;;;;;;;5.52;100.00;101368.69;4860878;29;20497;-90
2023/03/16 09:49:59;;;;;;;12.38;5.43;;;;;;;5.61;100.00;101369.50;4842820;29;20056;-92
2023/03/16 09:52:49;;;;;;;8.73;5.05;;;;;;;5.68;100.00;101369.81;4846693;29;20037;-91
2023/03/16 09:55:30;;;;;;;10.05;5.35;;;;;;;5.73;100.00;101364.03;4836201;29;20069;-91
2023/03/16 09:57:57;;;;;;;14.10;5.85;;;;;;;5.75;100.00;101358.97;4844626;29;20029;-91
2023/03/16 10:00:51;;;;;;;10.45;5.20;;;;;;;5.78;100.00;101366.66;4863319;29;20494;-91
2023/03/16 10:03:20;;;;;;;12.68;5.47;;;;;;;5.86;100.00;101367.75;4845088;29;20037;-91
2023/03/16 10:05:54;;;;;;;12.80;5.40;;;;;;;5.86;100.00;101359.41;4860445;29;20069;-91
2023/03/16 10:08:23;;;;;;;9.55;5.30;;;;;;;5.96;100.00;101369.38;4849824;29;20491;-90
2023/03/16 10:11:04;;;;;;;9.60;5.00;;;;;;;5.99;100.00;101360.38;4848186;29;20029;-91
2023/03/16 10:13:33;;;;;;;10.13;5.07;;;;;;;6.01;100.00;101360.84;4854183;29;20049;-91
2023/03/16 10:16:04;;;;;;;12.32;5.03;;;;;;;6.02;100.00;101356.94;4858600;29;20032;-91
2023/03/16 10:18:38;;;;;;;11.93;7.13;;;;;;;6.05;100.00;101365.41;4846394;29;20041;-92
2023/03/16 10:21:04;;;;;;;16.10;5.72;;;;;;;6.06;100.00;101369.81;4863172;29;20029;-92
2023/03/16 10:23:34;;;;;;;12.57;4.82;;;;;;;6.08;100.00;101366.69;4863881;29;20042;-92
2023/03/16 10:26:06;;;;;;;9.23;6.38;;;;;;;6.12;100.00;101356.53;4862875;29;20037;-92
2023/03/16 10:28:31;;;;;;;10.00;5.38;;;;;;;6.13;100.00;101363.72;4844442;29;20034;-90
2023/03/16 10:30:59;;;;;;;7.35;5.57;;;;;;;6.14;100.00;101359.81;4864556;29;20049;-93
2023/03/16 10:33:33;;;;;;;9.98;6.13;;;;;;;6.17;100.00;101356.34;4862247;29;20045;-90
2023/03/16 10:36:11;;;;;;;9.77;4.95;;;;;;;6.15;100.00;101355.84;4861571;29;20037;-93
2023/03/16 10:38:39;;;;;;;12.60;6.65;;;;;;;6.19;100.00;101351.25;4857276;29;20034;-92
2023/03/16 10:41:32;;;;;;;13.25;5.97;;;;;;;6.16;100.00;101351.94;4859208;29;20121;-92
2023/03/16 10:44:06;;;;;;;9.13;5.25;;;;;;;6.29;100.00;101353.66;4858894;29;20033;-92
2023/03/16 10:46:39;;;;;;;15.45;5.88;;;;;;;6.31;100.00;101348.56;4863726;29;20033;-89
2023/03/16 10:49:05;;;;;;;8.18;4.78;;;;;;;6.37;100.00;101351.16;4862627;29;20039;-90
2023/03/16 10:51:35;;;;;;;11.38;5.60;;;;;;;6.44;100.00;101359.78;4862040;29;20033;-90
2023/03/16 10:54:32;;;;;;;8.88;5.60;;;;;;;6.51;100.00;101346.13;4858191;29;20064;-90
2023/03/16 10:56:59;;;;;;;11.43;5.50;;;;;;;6.48;100.00;101349.59;4842977;29;20075;-92
2023/03/16 10:59:27;;;;;;;11.05;4.97;;;;;;;6.59;100.00;101348.03;4842287;29;20030;-91
2023/03/16 11:01:53;;;;;;;10.07;5.25;;;;;;;6.61;100.00;101339.38;4845475;29;20041;-91
2023/03/16 11:04:19;;;;;;;11.75;5.65;;;;;;;6.66;100.00;101341.94;4876494;29;20493;-88
2023/03/16 11:06:54;;;;;;;10.52;6.10;;;;;;;6.82;100.00;101333.78;4877317;29;20029;-91
2023/03/16 11:09:24;;;;;;;13.23;5.43;;;;;;;6.83;100.00;101330.66;4876301;29;20033;-91
2023/03/16 11:11:51;;;;;;;10.43;5.00;;;;;;;6.94;100.00;101335.81;4893959;29;20064;-93
2023/03/16 11:14:24;;;;;;;9.75;5.97;;;;;;;6.91;100.00;101331.72;4875858;29;20036;-92
2023/03/16 11:17:04;;;;;;;9.98;5.65;;;;;;;6.97;100.00;101329.56;4877039;29;20051;-91
2023/03/16 11:19:34;;;;;;;10.00;4.88;;;;;;;7.02;100.00;101335.72;4879895;29;20100;-89
2023/03/16 11:22:23;;;;;;;9.23;4.88;;;;;;;7.10;100.00;101323.69;4874815;29;20037;-91
2023/03/16 11:25:01;;;;;;;12.48;5.60;;;;;;;7.17;100.00;101328.69;4877754;29;20096;-89